Time;durP1;ratioP1;P1;durP2;ratioP2;P2;SDS_P1;SDS_P2;PMS_P1;PMS_P2;Temp;Humidity;BMP_temperature;BMP_pressure;BME280_temperature;BME280_humidity;BME280_pressure;Samples;Min_cycle;Max_cycle;Signal;HPM_P1;HPM_P2
2021/10/12 00:01:52;;;;;;;7.90;1.45;;;10.30;99.90;;;;;;5049730;28;20025;-72
2021/10/12 00:04:18;;;;;;;4.40;1.30;;;10.20;99.90;;;;;;5052049;28;20083;-72
2021/10/12 00:06:44;;;;;;;5.28;1.30;;;10.20;99.90;;;;;;5053821;28;20368;-72
2021/10/12 00:09:09;;;;;;;6.78;1.65;;;10.20;99.90;;;;;;5039428;28;20094;-72
2021/10/12 00:11:35;;;;;;;6.03;1.13;;;10.20;99.90;;;;;;5030892;28;20434;-72
2021/10/12 00:14:01;;;;;;;6.25;1.92;;;10.20;99.90;;;;;;5050674;28;20086;-72
2021/10/12 00:16:27;;;;;;;4.47;1.20;;;10.30;99.90;;;;;;5052098;28;20423;-73
2021/10/12 00:18:53;;;;;;;7.30;1.40;;;10.30;99.90;;;;;;5053865;28;20099;-72
2021/10/12 00:21:19;;;;;;;8.15;1.35;;;10.30;99.90;;;;;;5043058;28;20031;-72
2021/10/12 00:23:45;;;;;;;11.30;1.70;;;10.30;99.90;;;;;;5050899;28;20422;-72
2021/10/12 00:26:11;;;;;;;5.57;1.67;;;10.30;99.90;;;;;;5049058;28;20052;-72
2021/10/12 00:28:37;;;;;;;6.10;1.17;;;10.30;99.90;;;;;;5051950;28;20017;-72
2021/10/12 00:31:03;;;;;;;8.15;1.70;;;10.20;99.90;;;;;;5051055;28;20021;-72
2021/10/12 00:33:30;;;;;;;9.27;1.92;;;10.20;99.90;;;;;;5030708;28;20036;-73
2021/10/12 00:35:57;;;;;;;10.52;1.75;;;10.10;99.90;;;;;;5050942;28;20025;-72
2021/10/12 00:38:24;;;;;;;7.28;1.80;;;10.10;99.90;;;;;;5053425;28;20090;-72
2021/10/12 00:40:50;;;;;;;9.00;1.73;;;10.00;99.90;;;;;;5033751;28;20036;-71
2021/10/12 00:43:16;;;;;;;7.82;1.77;;;10.00;99.90;;;;;;5032148;28;20029;-72
2021/10/12 00:45:42;;;;;;;4.97;1.67;;;10.00;99.90;;;;;;5044773;28;20055;-72
2021/10/12 00:48:09;;;;;;;6.57;1.65;;;10.00;99.90;;;;;;5033175;28;20100;-72
2021/10/12 00:50:38;;;;;;;5.53;1.75;;;10.00;99.90;;;;;;5034242;28;20392;-72
2021/10/12 00:53:04;;;;;;;10.05;1.85;;;9.90;99.90;;;;;;5052463;28;20039;-72
2021/10/12 00:55:30;;;;;;;6.82;1.52;;;9.90;99.90;;;;;;5033973;28;20029;-72
2021/10/12 00:57:57;;;;;;;7.63;2.42;;;9.90;99.90;;;;;;5047116;28;20025;-72
2021/10/12 01:00:23;;;;;;;7.10;2.33;;;9.80;99.90;;;;;;5047507;28;20117;-72
2021/10/12 01:02:49;;;;;;;6.13;1.63;;;9.90;99.90;;;;;;5045820;28;20029;-72
2021/10/12 01:05:16;;;;;;;7.40;2.00;;;9.90;99.90;;;;;;5047747;28;20021;-72
2021/10/12 01:07:41;;;;;;;6.43;2.00;;;9.90;99.90;;;;;;5049452;28;20028;-72
2021/10/12 01:10:09;;;;;;;8.25;1.65;;;9.90;99.90;;;;;;5050960;28;20421;-72
2021/10/12 01:12:37;;;;;;;6.25;1.67;;;9.90;99.90;;;;;;5045306;28;20026;-72
2021/10/12 01:15:05;;;;;;;8.15;1.75;;;9.90;99.90;;;;;;5045114;28;20029;-72
2021/10/12 01:17:31;;;;;;;3.22;1.70;;;9.90;99.90;;;;;;5052799;28;20029;-72
2021/10/12 01:19:57;;;;;;;4.63;1.25;;;9.90;99.90;;;;;;5051971;28;20546;-72
2021/10/12 01:22:23;;;;;;;3.63;1.40;;;9.90;99.90;;;;;;5049930;28;20071;-72
2021/10/12 01:24:48;;;;;;;3.60;1.35;;;9.80;99.90;;;;;;5052547;28;20017;-72
2021/10/12 01:27:14;;;;;;;5.07;1.67;;;9.90;99.90;;;;;;5050823;28;20100;-72
2021/10/12 01:29:40;;;;;;;5.00;1.35;;;9.90;99.90;;;;;;5051128;28;20032;-72
2021/10/12 01:32:06;;;;;;;3.72;1.30;;;9.90;99.90;;;;;;5033904;28;20032;-72
2021/10/12 01:34:33;;;;;;;7.95;1.77;;;9.90;99.90;;;;;;5045705;28;20484;-72
2021/10/12 01:36:58;;;;;;;3.38;1.70;;;9.90;99.90;;;;;;5050083;28;20051;-72
2021/10/12 01:39:24;;;;;;;3.92;1.40;;;9.90;99.90;;;;;;5044811;28;20918;-72
2021/10/12 01:41:50;;;;;;;6.95;2.03;;;9.90;99.90;;;;;;5048880;28;20032;-72
2021/10/12 01:44:17;;;;;;;5.80;1.80;;;9.90;99.90;;;;;;5047810;28;20061;-72
2021/10/12 01:46:43;;;;;;;4.68;1.80;;;9.90;99.90;;;;;;5048783;28;20053;-72
2021/10/12 01:49:09;;;;;;;5.90;2.20;;;9.90;99.90;;;;;;5025253;28;20029;-73
2021/10/12 01:51:36;;;;;;;3.20;1.60;;;9.90;99.90;;;;;;5048420;28;20060;-72
2021/10/12 01:54:02;;;;;;;7.90;3.08;;;9.90;99.90;;;;;;5050856;28;20490;-72
2021/10/12 01:56:29;;;;;;;5.72;2.13;;;9.90;99.90;;;;;;5047225;28;20036;-72
2021/10/12 01:58:55;;;;;;;5.25;2.00;;;9.90;99.90;;;;;;5051439;28;20111;-71
2021/10/12 02:01:23;;;;;;;6.55;2.08;;;9.90;99.90;;;;;;5049178;28;20063;-72
2021/10/12 02:03:49;;;;;;;4.35;1.70;;;9.90;99.90;;;;;;5034699;28;20039;-72
2021/10/12 02:06:16;;;;;;;4.55;1.90;;;9.90;99.90;;;;;;5047526;28;20025;-72
2021/10/12 02:08:42;;;;;;;4.47;1.73;;;9.90;99.90;;;;;;5051169;28;20402;-72
2021/10/12 02:11:08;;;;;;;4.10;1.83;;;9.90;99.90;;;;;;5044481;28;20086;-72
2021/10/12 02:13:33;;;;;;;3.60;1.33;;;9.90;99.90;;;;;;5049793;28;20124;-72
2021/10/12 02:15:59;;;;;;;3.88;1.40;;;9.90;99.90;;;;;;5033658;28;20037;-72
2021/10/12 02:18:25;;;;;;;4.82;1.35;;;9.90;99.90;;;;;;5051963;28;20064;-72
2021/10/12 02:20:51;;;;;;;3.80;1.52;;;9.90;99.90;;;;;;5049248;28;20029;-72
2021/10/12 02:23:17;;;;;;;4.68;1.20;;;9.80;99.90;;;;;;5027285;28;20093;-72
2021/10/12 02:25:43;;;;;;;4.88;1.10;;;9.80;99.90;;;;;;5043220;28;20597;-72
2021/10/12 02:28:09;;;;;;;2.17;1.08;;;9.80;99.90;;;;;;5045072;28;20104;-72
2021/10/12 02:30:35;;;;;;;7.70;1.23;;;9.80;99.90;;;;;;5046605;28;20017;-72
2021/10/12 02:33:01;;;;;;;4.78;1.13;;;9.80;99.90;;;;;;5025327;28;20059;-72
2021/10/12 02:35:27;;;;;;;5.55;1.35;;;9.80;99.90;;;;;;5046016;28;20129;-72
2021/10/12 02:37:53;;;;;;;3.13;1.65;;;9.70;99.90;;;;;;5049156;28;20032;-72
2021/10/12 02:40:19;;;;;;;4.43;1.60;;;9.70;99.90;;;;;;5043908;28;20033;-72
2021/10/12 02:42:45;;;;;;;6.50;1.88;;;9.70;99.90;;;;;;5043842;28;20029;-72
2021/10/12 02:45:11;;;;;;;5.57;1.90;;;9.70;99.90;;;;;;5050564;28;20485;-72
2021/10/12 02:47:37;;;;;;;6.50;2.13;;;9.70;99.90;;;;;;5047818;28;20094;-73
2021/10/12 02:50:04;;;;;;;2.47;1.45;;;9.70;99.90;;;;;;5027801;28;20068;-71
2021/10/12 02:52:30;;;;;;;4.25;1.85;;;9.70;99.90;;;;;;5046858;28;20033;-72
2021/10/12 02:54:56;;;;;;;4.05;1.30;;;9.70;99.90;;;;;;5047513;28;20028;-72
2021/10/12 02:57:22;;;;;;;3.88;1.35;;;9.70;99.90;;;;;;5048672;28;20056;-71
2021/10/12 02:59:48;;;;;;;4.63;1.20;;;9.70;99.90;;;;;;5050939;28;20028;-72
2021/10/12 03:02:14;;;;;;;3.83;1.20;;;9.70;99.90;;;;;;5049402;28;20104;-72
2021/10/12 03:04:40;;;;;;;3.83;0.90;;;9.70;99.90;;;;;;5050840;28;20061;-72
2021/10/12 03:07:06;;;;;;;2.88;0.90;;;9.70;99.90;;;;;;5048173;28;20025;-72
2021/10/12 03:09:31;;;;;;;2.90;0.82;;;9.70;99.90;;;;;;5049652;28;20025;-72
2021/10/12 03:11:57;;;;;;;2.58;0.90;;;9.60;99.90;;;;;;5049745;28;20112;-72
2021/10/12 03:14:23;;;;;;;1.10;0.60;;;9.70;99.90;;;;;;5049536;28;20828;-72
2021/10/12 03:16:48;;;;;;;4.75;1.33;;;9.60;99.90;;;;;;5033244;28;20476;-72
2021/10/12 03:19:16;;;;;;;2.78;0.75;;;9.60;99.90;;;;;;5047227;28;20041;-72
2021/10/12 03:21:50;;;;;;;2.97;0.93;;;9.70;99.90;;;;;;5027884;28;20025;-73
2021/10/12 03:24:16;;;;;;;4.55;0.95;;;9.60;99.90;;;;;;5024605;28;20033;-73
2021/10/12 03:26:42;;;;;;;1.83;0.80;;;9.70;99.90;;;;;;5051107;28;20025;-72
2021/10/12 03:29:08;;;;;;;2.20;1.10;;;9.70;99.90;;;;;;5050032;28;20390;-71
2021/10/12 03:31:33;;;;;;;2.65;0.60;;;9.70;99.90;;;;;;5049992;28;20037;-72
2021/10/12 03:33:59;;;;;;;1.92;0.50;;;9.70;99.90;;;;;;5050128;28;20025;-72
2021/10/12 03:36:25;;;;;;;3.83;1.10;;;9.70;99.90;;;;;;5047010;28;20029;-72
2021/10/12 03:38:50;;;;;;;1.73;0.65;;;9.60;99.90;;;;;;5047418;28;20063;-72
2021/10/12 03:41:16;;;;;;;1.02;0.70;;;9.60;99.90;;;;;;5047366;28;20037;-72
2021/10/12 03:43:42;;;;;;;1.55;0.47;;;9.60;99.90;;;;;;5046869;28;20036;-72
2021/10/12 03:46:08;;;;;;;2.70;0.50;;;9.60;99.90;;;;;;5031389;28;20040;-72
2021/10/12 03:48:34;;;;;;;1.60;0.60;;;9.60;99.90;;;;;;5049714;28;20028;-71
2021/10/12 03:50:59;;;;;;;2.67;0.70;;;9.60;99.90;;;;;;5050314;28;20052;-72
2021/10/12 03:53:25;;;;;;;2.15;0.80;;;9.50;99.90;;;;;;5044842;28;20041;-72
2021/10/12 03:55:51;;;;;;;1.02;0.50;;;9.50;99.90;;;;;;5048896;28;20480;-72
2021/10/12 03:58:17;;;;;;;3.17;0.52;;;9.50;99.90;;;;;;5053430;28;20036;-72
2021/10/12 04:00:42;;;;;;;1.35;0.60;;;9.50;99.90;;;;;;5024899;28;20055;-72
2021/10/12 04:03:08;;;;;;;2.85;0.57;;;9.50;99.90;;;;;;5048642;28;20441;-72
2021/10/12 04:05:34;;;;;;;1.67;0.60;;;9.50;99.90;;;;;;5050231;28;20376;-72
2021/10/12 04:08:00;;;;;;;2.92;1.17;;;9.40;99.90;;;;;;5048774;28;20021;-72
2021/10/12 04:10:25;;;;;;;2.72;0.80;;;9.40;99.90;;;;;;5045276;28;20026;-72
2021/10/12 04:12:51;;;;;;;1.08;0.60;;;9.40;99.90;;;;;;5040738;28;20017;-72
2021/10/12 04:15:17;;;;;;;2.55;0.80;;;9.40;99.90;;;;;;5048737;28;20950;-71
2021/10/12 04:17:43;;;;;;;2.30;0.70;;;9.40;99.90;;;;;;5050145;28;20690;-71
2021/10/12 04:20:10;;;;;;;3.50;0.75;;;9.40;99.90;;;;;;5030517;28;20032;-71
2021/10/12 04:22:35;;;;;;;2.00;1.02;;;9.30;99.90;;;;;;5046389;28;20029;-72
2021/10/12 04:25:01;;;;;;;4.45;1.08;;;9.30;99.90;;;;;;5048587;28;20423;-71
2021/10/12 04:27:27;;;;;;;2.03;1.00;;;9.30;99.90;;;;;;5051674;28;20059;-72
2021/10/12 04:29:53;;;;;;;2.90;1.00;;;9.40;99.90;;;;;;5048100;28;20026;-72
2021/10/12 04:32:19;;;;;;;2.50;0.82;;;9.40;99.90;;;;;;5047760;28;20079;-71
2021/10/12 04:34:45;;;;;;;2.45;0.80;;;9.40;99.90;;;;;;5053629;28;20505;-71
2021/10/12 04:37:11;;;;;;;3.45;0.98;;;9.40;99.90;;;;;;5051518;28;20069;-72
2021/10/12 04:39:36;;;;;;;3.15;1.00;;;9.40;99.90;;;;;;5049301;28;20483;-72
2021/10/12 04:42:04;;;;;;;2.20;0.70;;;9.50;99.90;;;;;;5048601;28;20533;-72
2021/10/12 04:44:32;;;;;;;2.42;0.80;;;9.40;99.90;;;;;;5053119;28;20032;-71
2021/10/12 04:46:58;;;;;;;1.55;0.80;;;9.30;99.90;;;;;;5052865;28;20032;-72
2021/10/12 04:49:24;;;;;;;2.60;1.17;;;9.30;99.90;;;;;;5054630;28;20026;-72
2021/10/12 04:51:50;;;;;;;5.18;1.40;;;9.30;99.90;;;;;;5048507;28;20113;-72
2021/10/12 04:54:16;;;;;;;3.25;1.27;;;9.30;99.90;;;;;;5046427;28;20029;-72
2021/10/12 04:56:42;;;;;;;6.43;2.03;;;9.30;99.90;;;;;;5049548;28;20037;-72
2021/10/12 04:59:08;;;;;;;5.28;1.98;;;9.30;99.90;;;;;;5050772;28;20549;-71
2021/10/12 05:01:33;;;;;;;4.28;1.75;;;9.30;99.90;;;;;;5044749;28;20033;-71
2021/10/12 05:03:59;;;;;;;4.85;2.08;;;9.30;99.90;;;;;;5047240;28;20033;-72
2021/10/12 05:06:25;;;;;;;4.50;2.00;;;9.30;99.90;;;;;;5049677;28;20036;-72
2021/10/12 05:08:51;;;;;;;4.78;2.25;;;9.30;99.90;;;;;;5048874;28;20048;-72
2021/10/12 05:11:17;;;;;;;4.10;2.55;;;9.30;99.90;;;;;;5048983;28;20027;-72
2021/10/12 05:13:43;;;;;;;4.88;2.83;;;9.30;99.90;;;;;;5052227;28;20096;-72
2021/10/12 05:16:13;;;;;;;7.63;2.90;;;9.30;99.90;;;;;;5052077;28;20151;-71
2021/10/12 05:18:42;;;;;;;4.53;2.70;;;9.20;99.90;;;;;;5052703;28;20078;-72
2021/10/12 05:21:08;;;;;;;6.53;3.20;;;9.20;99.90;;;;;;5049904;28;20025;-74
2021/10/12 05:23:34;;;;;;;4.93;3.42;;;9.20;99.90;;;;;;5048990;28;20059;-72
2021/10/12 05:26:00;;;;;;;7.03;3.60;;;9.20;99.90;;;;;;5050526;28;20036;-72
2021/10/12 05:28:26;;;;;;;9.32;4.53;;;9.20;99.90;;;;;;5048046;28;20025;-72
2021/10/12 05:30:52;;;;;;;9.85;3.97;;;9.20;99.90;;;;;;5041212;28;20021;-72
2021/10/12 05:33:19;;;;;;;9.45;4.10;;;9.10;99.90;;;;;;5047840;28;20992;-72
2021/10/12 05:35:48;;;;;;;6.78;3.45;;;9.10;99.90;;;;;;5052537;28;20025;-73
2021/10/12 05:38:15;;;;;;;8.13;4.07;;;9.10;99.90;;;;;;5049619;28;20040;-72
2021/10/12 05:40:41;;;;;;;8.57;4.47;;;9.10;99.90;;;;;;5049053;28;20601;-72
2021/10/12 05:43:07;;;;;;;8.00;4.38;;;9.10;99.90;;;;;;5051511;28;20521;-72
2021/10/12 05:45:34;;;;;;;9.38;5.30;;;9.10;99.90;;;;;;5048116;28;20022;-72
2021/10/12 05:48:00;;;;;;;9.90;5.13;;;9.10;99.90;;;;;;5050444;28;20471;-72
2021/10/12 05:50:26;;;;;;;10.05;5.13;;;9.10;99.90;;;;;;5052156;28;20044;-73
2021/10/12 05:53:08;;;;;;;9.35;5.30;;;9.20;99.90;;;;;;5043876;28;20014;-72
2021/10/12 05:58:07;;;;;;;8.73;4.43;;;9.20;99.90;;;;;;5052166;28;20020;-72
2021/10/12 06:00:34;;;;;;;10.52;5.07;;;9.20;99.90;;;;;;5049469;28;20025;-72
2021/10/12 06:03:00;;;;;;;10.75;4.70;;;9.20;99.90;;;;;;5032839;28;20039;-72
2021/10/12 06:05:26;;;;;;;8.18;4.50;;;9.30;99.90;;;;;;5052048;28;20032;-72
2021/10/12 06:07:52;;;;;;;10.25;4.35;;;9.40;99.90;;;;;;5050443;28;20033;-72
2021/10/12 06:10:18;;;;;;;12.50;5.25;;;9.40;99.90;;;;;;5047974;28;20100;-72
2021/10/12 06:12:44;;;;;;;9.23;5.15;;;9.40;99.90;;;;;;5028835;28;20029;-72
2021/10/12 06:15:10;;;;;;;8.75;5.78;;;9.40;99.90;;;;;;5041241;28;20545;-72
2021/10/12 06:17:35;;;;;;;14.63;7.57;;;9.50;99.90;;;;;;5045788;28;20029;-71
2021/10/12 06:20:01;;;;;;;10.40;5.45;;;9.50;99.90;;;;;;5050635;28;20517;-72
2021/10/12 06:22:27;;;;;;;12.88;6.75;;;9.50;99.90;;;;;;5043525;28;20066;-71
2021/10/12 06:24:53;;;;;;;9.23;3.30;;;9.50;99.90;;;;;;5042886;28;20666;-71
2021/10/12 06:27:20;;;;;;;6.78;2.60;;;9.40;99.90;;;;;;5046642;28;20021;-72
2021/10/12 06:29:46;;;;;;;9.60;2.17;;;9.40;99.90;;;;;;5050660;28;20475;-69
2021/10/12 06:32:12;;;;;;;4.63;2.03;;;9.40;99.90;;;;;;5047204;28;20032;-72
2021/10/12 06:34:37;;;;;;;6.47;2.08;;;9.40;99.90;;;;;;5042761;28;20338;-71
2021/10/12 06:37:04;;;;;;;4.35;1.67;;;9.40;99.90;;;;;;5032016;28;20049;-71
2021/10/12 06:39:29;;;;;;;8.65;1.70;;;9.40;99.90;;;;;;5046136;28;20029;-71
2021/10/12 06:41:55;;;;;;;7.35;2.60;;;9.40;99.90;;;;;;5039704;28;20349;-71
2021/10/12 06:44:21;;;;;;;5.30;2.00;;;9.40;99.90;;;;;;5038720;28;20117;-72
2021/10/12 06:46:46;;;;;;;5.90;1.70;;;9.40;99.90;;;;;;5050363;28;20025;-71
2021/10/12 06:49:12;;;;;;;9.38;2.13;;;9.40;99.90;;;;;;5032549;28;20502;-72
2021/10/12 06:51:38;;;;;;;5.43;1.63;;;9.40;99.90;;;;;;5045123;28;20037;-71
2021/10/12 06:54:04;;;;;;;5.68;1.95;;;9.40;99.90;;;;;;5047080;28;20080;-71
2021/10/12 06:56:32;;;;;;;6.25;1.75;;;9.40;99.90;;;;;;5050465;28;20072;-72
2021/10/12 06:58:58;;;;;;;9.70;2.13;;;9.50;99.90;;;;;;5051243;28;20542;-70
2021/10/12 07:01:23;;;;;;;5.82;1.70;;;9.40;99.90;;;;;;5039539;28;20101;-72
2021/10/12 07:03:49;;;;;;;7.85;2.05;;;9.50;99.90;;;;;;5038169;28;20029;-71
2021/10/12 07:06:15;;;;;;;6.80;2.10;;;9.40;99.90;;;;;;5046319;28;20033;-71
2021/10/12 07:08:41;;;;;;;5.40;1.38;;;9.40;99.90;;;;;;5051052;28;20025;-72
2021/10/12 07:11:06;;;;;;;7.05;1.88;;;9.40;99.90;;;;;;5048768;28;20037;-70
2021/10/12 07:13:32;;;;;;;4.97;1.95;;;9.50;99.90;;;;;;5040325;28;20053;-71
2021/10/12 07:15:58;;;;;;;7.32;1.98;;;9.50;99.90;;;;;;5044774;28;20025;-71
2021/10/12 07:18:25;;;;;;;8.43;1.80;;;9.50;99.90;;;;;;5015692;28;20033;-70
2021/10/12 07:20:51;;;;;;;6.10;2.03;;;9.50;99.90;;;;;;5047250;28;20032;-70
2021/10/12 07:23:17;;;;;;;4.72;1.50;;;9.50;99.90;;;;;;5045990;28;20068;-71
2021/10/12 07:25:48;;;;;;;5.18;1.52;;;9.50;99.90;;;;;;5022430;28;20387;-72
2021/10/12 07:28:15;;;;;;;6.50;1.48;;;9.50;99.90;;;;;;5040219;28;20044;-70
2021/10/12 07:30:41;;;;;;;5.90;1.30;;;9.50;99.90;;;;;;5040375;28;20029;-71
2021/10/12 07:33:07;;;;;;;5.35;1.40;;;9.50;99.90;;;;;;5039291;28;20032;-70
2021/10/12 07:35:33;;;;;;;5.57;1.10;;;9.50;99.90;;;;;;5034941;28;20375;-70
2021/10/12 07:38:00;;;;;;;3.47;1.10;;;9.50;99.90;;;;;;5021523;28;20554;-72
2021/10/12 07:40:26;;;;;;;5.93;1.30;;;9.50;99.90;;;;;;5035166;28;20483;-71
2021/10/12 07:42:52;;;;;;;6.53;1.98;;;9.50;99.90;;;;;;5035310;28;20419;-71
2021/10/12 07:45:18;;;;;;;9.05;1.50;;;9.50;99.90;;;;;;5039398;28;20145;-72
2021/10/12 07:47:44;;;;;;;7.03;1.88;;;9.50;99.90;;;;;;5036698;28;20082;-72
2021/10/12 07:50:10;;;;;;;5.22;1.40;;;9.50;99.90;;;;;;5036605;28;20106;-71
2021/10/12 07:52:37;;;;;;;8.43;1.60;;;9.50;99.90;;;;;;5036420;28;20112;-72
2021/10/12 07:57:35;;;;;;;7.50;3.00;;;9.60;99.90;;;;;;5041574;28;20045;-72
2021/10/12 08:00:01;;;;;;;8.80;1.80;;;9.70;99.90;;;;;;5042916;28;20032;-71
2021/10/12 08:02:28;;;;;;;8.65;1.60;;;9.60;99.90;;;;;;5036481;28;20032;-71
2021/10/12 08:04:53;;;;;;;9.63;1.48;;;9.60;99.90;;;;;;5043091;28;20438;-71
2021/10/12 08:07:19;;;;;;;6.43;1.50;;;9.60;99.90;;;;;;5039863;28;20046;-71
2021/10/12 08:09:45;;;;;;;4.10;1.00;;;9.70;99.90;;;;;;5041960;28;20090;-72
2021/10/12 08:12:10;;;;;;;5.72;1.10;;;9.70;99.90;;;;;;5040670;28;20518;-72
2021/10/12 08:14:42;;;;;;;5.70;1.20;;;9.70;99.90;;;;;;5039747;28;20043;-73
2021/10/12 08:17:08;;;;;;;3.45;0.88;;;9.70;99.90;;;;;;5044894;28;20488;-71
2021/10/12 08:19:34;;;;;;;7.28;1.15;;;9.70;99.90;;;;;;5040992;28;20581;-71
2021/10/12 08:22:01;;;;;;;10.27;1.60;;;9.70;99.90;;;;;;5029871;28;20506;-71
2021/10/12 08:24:27;;;;;;;4.18;1.00;;;9.70;99.90;;;;;;5040505;28;20115;-72
2021/10/12 08:26:52;;;;;;;5.20;0.90;;;9.70;99.90;;;;;;5042731;28;20498;-72
2021/10/12 08:29:18;;;;;;;4.68;0.93;;;9.70;99.90;;;;;;5042207;28;20100;-72
2021/10/12 08:31:44;;;;;;;3.58;1.30;;;9.70;99.90;;;;;;5040683;28;20025;-71
2021/10/12 08:34:10;;;;;;;6.55;1.00;;;9.70;99.90;;;;;;5041176;28;20107;-71
2021/10/12 08:36:38;;;;;;;6.70;0.98;;;9.80;99.90;;;;;;5022631;28;20029;-71
2021/10/12 08:39:06;;;;;;;4.88;1.13;;;9.70;99.90;;;;;;5041111;28;20161;-71
2021/10/12 08:41:37;;;;;;;7.10;1.40;;;9.70;99.90;;;;;;5035794;28;20115;-73
2021/10/12 08:44:03;;;;;;;5.57;1.25;;;9.70;99.90;;;;;;5040337;28;20127;-70
2021/10/12 08:46:30;;;;;;;3.50;1.00;;;9.70;99.90;;;;;;5042108;28;20473;-71
2021/10/12 08:48:57;;;;;;;8.35;0.95;;;9.80;99.90;;;;;;5039776;28;20148;-71
2021/10/12 08:51:24;;;;;;;7.13;0.90;;;9.70;99.90;;;;;;5041135;28;20029;-70
2021/10/12 08:53:51;;;;;;;10.73;1.60;;;9.70;99.90;;;;;;5022730;28;20128;-70
2021/10/12 08:56:17;;;;;;;7.53;1.10;;;9.70;99.90;;;;;;5042035;28;20029;-71
2021/10/12 08:58:43;;;;;;;4.60;1.02;;;9.80;99.90;;;;;;5039865;28;20033;-71
2021/10/12 09:01:19;;;;;;;7.40;1.38;;;9.80;99.90;;;;;;5037388;28;20040;-71
2021/10/12 09:03:52;;;;;;;5.80;1.00;;;9.90;99.90;;;;;;5038073;28;20099;-70
2021/10/12 09:06:33;;;;;;;7.72;1.02;;;9.90;99.90;;;;;;5041842;28;20056;-71
2021/10/12 09:09:04;;;;;;;3.60;0.82;;;9.90;99.90;;;;;;5024487;28;20021;-70
2021/10/12 09:11:31;;;;;;;5.60;1.20;;;10.00;99.90;;;;;;5040584;28;20029;-73
2021/10/12 09:14:04;;;;;;;2.08;0.60;;;10.00;99.90;;;;;;5036909;28;20787;-70
2021/10/12 09:16:38;;;;;;;6.03;0.88;;;10.00;99.90;;;;;;5037268;28;20497;-70
2021/10/12 09:19:15;;;;;;;5.13;1.30;;;10.10;99.90;;;;;;5021473;28;20033;-71
2021/10/12 09:21:46;;;;;;;6.97;1.17;;;10.10;99.90;;;;;;5037284;28;20552;-70
2021/10/12 09:24:15;;;;;;;7.05;0.80;;;10.20;99.90;;;;;;5037326;28;20036;-72
2021/10/12 09:26:42;;;;;;;5.35;1.15;;;10.20;99.80;;;;;;5039213;28;20025;-72
2021/10/12 09:29:17;;;;;;;5.18;0.90;;;10.20;99.90;;;;;;5038631;28;20025;-70
2021/10/12 09:31:45;;;;;;;6.57;1.35;;;10.40;99.90;;;;;;5037667;28;20545;-71
2021/10/12 09:34:13;;;;;;;5.65;0.80;;;10.40;99.30;;;;;;5037850;28;20045;-77
2021/10/12 09:36:39;;;;;;;2.70;0.60;;;10.60;99.60;;;;;;5036395;28;20368;-71
2021/10/12 09:39:07;;;;;;;3.85;0.85;;;10.80;99.90;;;;;;5037496;28;20059;-70
2021/10/12 09:41:33;;;;;;;5.97;0.90;;;11.00;99.90;;;;;;5039012;28;20033;-72
2021/10/12 09:44:28;;;;;;;7.97;1.40;;;11.20;99.50;;;;;;5040098;28;20026;-72
2021/10/12 09:47:12;;;;;;;4.15;1.05;;;11.70;99.90;;;;;;5027931;28;20463;-70
2021/10/12 09:49:38;;;;;;;6.70;1.00;;;12.20;99.90;;;;;;5040194;28;20045;-71
2021/10/12 09:52:06;;;;;;;6.25;0.98;;;12.80;99.90;;;;;;5038670;28;20040;-71
2021/10/12 09:54:48;;;;;;;4.88;0.90;;;13.20;98.70;;;;;;5039354;28;20044;-71
2021/10/12 09:57:15;;;;;;;5.15;1.23;;;14.10;97.20;;;;;;5038181;28;20033;-71
2021/10/12 09:59:41;;;;;;;4.70;1.50;;;15.00;94.70;;;;;;5040346;28;20037;-71
2021/10/12 10:02:11;;;;;;;5.57;1.15;;;16.20;92.10;;;;;;5036193;28;20391;-70
2021/10/12 10:04:39;;;;;;;4.23;0.90;;;17.10;84.80;;;;;;5040299;28;20083;-71
2021/10/12 10:07:09;;;;;;;4.47;1.00;;;18.90;79.80;;;;;;5042044;28;20318;-71
2021/10/12 10:09:39;;;;;;;3.75;1.20;;;19.40;64.00;;;;;;5038324;28;20049;-72
2021/10/12 10:12:08;;;;;;;1.60;0.60;;;19.90;72.70;;;;;;5038164;28;20036;-70
2021/10/12 10:14:36;;;;;;;3.38;1.00;;;20.40;63.90;;;;;;5041431;28;20423;-72
2021/10/12 10:17:03;;;;;;;2.80;0.85;;;21.20;67.70;;;;;;5026828;28;20050;-72
2021/10/12 10:19:43;;;;;;;4.93;0.68;;;22.20;63.30;;;;;;5020073;28;20510;-71
2021/10/12 10:22:09;;;;;;;3.13;0.80;;;23.60;59.10;;;;;;5036054;28;20087;-72
2021/10/12 10:24:42;;;;;;;4.57;0.98;;;25.00;58.90;;;;;;5039646;28;20415;-72
2021/10/12 10:27:27;;;;;;;4.65;1.00;;;26.30;53.10;;;;;;5043897;28;20033;-71
2021/10/12 10:30:19;;;;;;;7.95;4.55;;;25.80;51.20;;;;;;5041554;28;20026;-71
2021/10/12 10:32:49;;;;;;;3.47;1.80;;;26.30;49.20;;;;;;5038800;28;20025;-73
2021/10/12 10:35:35;;;;;;;4.80;1.25;;;26.90;47.50;;;;;;5037323;28;20430;-71
2021/10/12 10:38:36;;;;;;;4.20;0.93;;;26.80;43.10;;;;;;5040696;28;20487;-71
2021/10/12 10:41:04;;;;;;;5.05;0.80;;;26.20;47.70;;;;;;5024515;28;20415;-71
2021/10/12 10:43:48;;;;;;;2.45;0.95;;;23.60;47.30;;;;;;5035767;28;20033;-71
2021/10/12 10:46:32;;;;;;;2.95;0.90;;;24.00;46.40;;;;;;5037491;28;20029;-73
2021/10/12 10:49:09;;;;;;;3.08;0.50;;;24.50;49.50;;;;;;5037750;28;20108;-71
2021/10/12 10:52:02;;;;;;;3.58;0.80;;;24.20;45.30;;;;;;5037547;28;20075;-71
2021/10/12 10:54:37;;;;;;;3.22;0.80;;;22.60;48.10;;;;;;5037839;28;20064;-73
2021/10/12 10:57:14;;;;;;;3.83;1.05;;;22.20;54.80;;;;;;5039536;28;20507;-72
2021/10/12 10:59:40;;;;;;;2.60;1.00;;;21.50;48.10;;;;;;5037729;28;20160;-71
2021/10/12 11:02:28;;;;;;;4.97;0.85;;;21.20;47.90;;;;;;5036041;28;20119;-72
2021/10/12 11:04:55;;;;;;;3.00;0.80;;;20.80;48.10;;;;;;5023360;28;20032;-71
2021/10/12 11:07:24;;;;;;;3.47;0.80;;;20.30;49.80;;;;;;5023548;28;20025;-71
2021/10/12 11:09:51;;;;;;;2.95;0.88;;;19.20;53.90;;;;;;5039215;28;20021;-73
2021/10/12 11:12:21;;;;;;;13.98;1.65;;;18.20;57.40;;;;;;5033072;28;20033;-71
2021/10/12 11:14:48;;;;;;;2.53;0.60;;;17.70;58.40;;;;;;5035464;28;20160;-70
2021/10/12 11:17:14;;;;;;;6.55;1.25;;;17.60;60.70;;;;;;5039024;28;20033;-70
2021/10/12 11:20:00;;;;;;;4.15;0.77;;;17.40;58.00;;;;;;5037857;28;20167;-71
2021/10/12 11:22:29;;;;;;;4.30;1.05;;;17.10;60.40;;;;;;5025207;28;20570;-71
2021/10/12 11:24:55;;;;;;;5.30;1.10;;;16.70;63.90;;;;;;5036538;28;20131;-71
2021/10/12 11:27:22;;;;;;;5.45;0.85;;;16.00;64.40;;;;;;5038563;28;20075;-71
2021/10/12 11:30:08;;;;;;;4.45;1.23;;;15.40;68.90;;;;;;5021845;28;20032;-71
2021/10/12 11:32:34;;;;;;;6.97;1.10;;;15.10;71.50;;;;;;5041229;28;20025;-72
2021/10/12 11:35:12;;;;;;;2.00;0.68;;;14.80;71.40;;;;;;5043034;28;20036;-71
2021/10/12 11:37:55;;;;;;;3.30;0.98;;;14.60;74.80;;;;;;5041780;28;20037;-71
2021/10/12 11:40:23;;;;;;;3.90;1.05;;;14.40;74.30;;;;;;5045141;28;20028;-71
2021/10/12 11:42:49;;;;;;;5.88;1.20;;;14.20;72.50;;;;;;5044429;28;20086;-71
2021/10/12 11:45:15;;;;;;;3.70;0.80;;;14.00;76.30;;;;;;5043686;28;20033;-71
2021/10/12 11:47:42;;;;;;;2.83;0.73;;;13.80;78.50;;;;;;5040445;28;20029;-72
2021/10/12 11:50:12;;;;;;;4.55;1.05;;;13.60;78.20;;;;;;5044923;28;20029;-72
2021/10/12 11:52:38;;;;;;;3.22;0.68;;;13.50;76.90;;;;;;5043628;28;20428;-70
2021/10/12 11:55:10;;;;;;;4.32;1.00;;;13.50;79.70;;;;;;5045416;28;20039;-71
2021/10/12 11:57:37;;;;;;;2.75;0.90;;;13.40;80.10;;;;;;5055880;28;20044;-71
2021/10/12 12:00:05;;;;;;;1.95;0.60;;;13.40;79.80;;;;;;5044806;28;20055;-70
2021/10/12 12:02:31;;;;;;;4.35;1.10;;;13.30;83.00;;;;;;5040546;28;20036;-70
2021/10/12 12:04:58;;;;;;;1.90;0.70;;;13.30;82.40;;;;;;5024903;28;20148;-71
2021/10/12 12:07:29;;;;;;;5.30;0.90;;;13.20;83.10;;;;;;5041330;28;20091;-71
2021/10/12 12:09:56;;;;;;;1.83;0.77;;;13.10;84.10;;;;;;5040294;28;20031;-71
2021/10/12 12:12:22;;;;;;;6.55;0.93;;;13.00;85.70;;;;;;5043847;28;20022;-73
2021/10/12 12:14:53;;;;;;;9.60;0.95;;;12.80;84.10;;;;;;5044250;28;20029;-71
2021/10/12 12:17:24;;;;;;;3.35;0.70;;;12.80;83.90;;;;;;5048971;28;20583;-71
2021/10/12 12:19:52;;;;;;;;;;;12.70;83.50;;;;;;5048330;28;20391;-70
2021/10/12 12:22:18;;;;;;;3.25;0.80;;;12.70;85.80;;;;;;5046528;28;19917;-71
2021/10/12 12:25:15;;;;;;;6.60;0.80;;;12.70;87.30;;;;;;5050580;28;20056;-71
2021/10/12 12:27:52;;;;;;;6.05;1.33;;;12.80;88.00;;;;;;5051115;28;20044;-72
2021/10/12 12:30:18;;;;;;;2.47;1.20;;;12.70;85.90;;;;;;5049988;28;20430;-71
2021/10/12 12:32:56;;;;;;;3.55;0.82;;;12.60;86.40;;;;;;5046200;28;20016;-70
2021/10/12 12:35:25;;;;;;;4.15;0.80;;;12.60;86.40;;;;;;5043005;28;20033;-71
2021/10/12 12:38:02;;;;;;;2.25;0.57;;;12.60;87.00;;;;;;5050593;28;20977;-71
2021/10/12 12:40:30;;;;;;;5.80;1.10;;;12.70;87.10;;;;;;5050523;28;20024;-73
2021/10/12 12:42:56;;;;;;;4.88;1.17;;;12.70;87.90;;;;;;5048978;28;20108;-71
2021/10/12 12:45:24;;;;;;;2.70;0.98;;;12.70;85.60;;;;;;5046020;28;20087;-72
2021/10/12 12:47:51;;;;;;;3.10;0.98;;;12.60;86.80;;;;;;5046854;28;20029;-71
2021/10/12 12:50:23;;;;;;;3.67;0.80;;;12.60;84.80;;;;;;5044008;28;20037;-71
2021/10/12 12:52:49;;;;;;;3.25;0.80;;;12.50;85.50;;;;;;5043176;28;20029;-72
2021/10/12 12:55:39;;;;;;;4.45;1.08;;;12.40;87.00;;;;;;5045264;28;20048;-71
2021/10/12 12:58:05;;;;;;;2.08;0.80;;;12.40;86.90;;;;;;5046391;28;20033;-72
2021/10/12 13:00:33;;;;;;;8.80;1.60;;;12.30;89.80;;;;;;5040496;28;20052;-71
2021/10/12 13:02:59;;;;;;;2.90;0.70;;;12.30;87.80;;;;;;5047114;28;20033;-73